Decoded Metar for EPPO (POZNAN in POLAND) (IATA:POZ) | Meteo·Mobile Aviation Weather
aviador You're here:

EPPO Decoded Metar

POZNAN in POLAND
Report Time2018-11-12 18:30:00
UTC Time2018-11-12 18:54:17
Flight Rules mvfr MVFR
Wind160° at 07 kt
W.Decomp.*RWY 10: 3.9 kt HW 5.8 kt RCW
W.Rank160° ranks 23
Current wind is above 160° avg. (5.5)
Visibility7000 m
Phenomena:N/A
Clouds:N/A
Expected CloudBase > 400 ft AGL from Temp-Dew spread
CeilingNone
Temp11°C (ISA -3)
Dew Point10°C (94% RH)
AAT8.5°C
QNH1020 hPa
Density Alt-174 ft
Elevation302 ft
Report Wrong Elevation
Raw Report
EPPO 121830Z 16007KT 7000 NSC 11/10 Q1020 R10/09//95=

Extra information for EPPO:More info

Metar Taf Metar & Taf Last 4 Metars F.Rules Stats Wind Profile Meteogram Temp Stats Airport Information Weather charts Add Link Nearby VenuesMetar ALERT Operation Metar Decoded Social comments